sensor_id;sensor_type;location;lat;lon;timestamp;P1;durP1;ratioP1;P2;durP2;ratioP2
21038;SDS011;10678;51.002;4.786;2024-01-27T00:01:39;18.07;;;5.00;;
21038;SDS011;10678;51.002;4.786;2024-01-27T00:04:05;10.17;;;4.53;;
21038;SDS011;10678;51.002;4.786;2024-01-27T00:06:30;15.33;;;4.60;;
21038;SDS011;10678;51.002;4.786;2024-01-27T00:08:56;15.40;;;4.87;;
21038;SDS011;10678;51.002;4.786;2024-01-27T00:11:22;15.33;;;4.77;;
21038;SDS011;10678;51.002;4.786;2024-01-27T00:13:51;12.90;;;5.17;;
21038;SDS011;10678;51.002;4.786;2024-01-27T00:16:17;12.03;;;4.00;;
21038;SDS011;10678;51.002;4.786;2024-01-27T00:18:43;19.07;;;4.90;;
21038;SDS011;10678;51.002;4.786;2024-01-27T00:21:11;14.93;;;4.73;;
21038;SDS011;10678;51.002;4.786;2024-01-27T00:23:37;18.60;;;4.50;;
21038;SDS011;10678;51.002;4.786;2024-01-27T00:26:03;16.13;;;4.73;;
21038;SDS011;10678;51.002;4.786;2024-01-27T00:28:29;17.27;;;5.30;;
21038;SDS011;10678;51.002;4.786;2024-01-27T00:30:55;18.87;;;4.83;;
21038;SDS011;10678;51.002;4.786;2024-01-27T00:33:21;12.60;;;4.23;;
21038;SDS011;10678;51.002;4.786;2024-01-27T00:35:47;16.07;;;4.97;;
21038;SDS011;10678;51.002;4.786;2024-01-27T00:38:13;16.37;;;4.93;;
21038;SDS011;10678;51.002;4.786;2024-01-27T00:40:38;16.20;;;4.27;;
21038;SDS011;10678;51.002;4.786;2024-01-27T00:43:04;17.30;;;4.50;;
21038;SDS011;10678;51.002;4.786;2024-01-27T00:45:30;14.07;;;4.57;;
21038;SDS011;10678;51.002;4.786;2024-01-27T00:47:56;17.23;;;4.70;;
21038;SDS011;10678;51.002;4.786;2024-01-27T00:50:22;16.07;;;4.57;;
21038;SDS011;10678;51.002;4.786;2024-01-27T00:52:49;21.43;;;5.53;;
21038;SDS011;10678;51.002;4.786;2024-01-27T00:55:14;12.40;;;4.40;;
21038;SDS011;10678;51.002;4.786;2024-01-27T00:57:40;17.77;;;5.97;;
21038;SDS011;10678;51.002;4.786;2024-01-27T01:00:06;15.30;;;5.47;;
21038;SDS011;10678;51.002;4.786;2024-01-27T01:02:33;21.97;;;6.03;;
21038;SDS011;10678;51.002;4.786;2024-01-27T01:04:59;17.10;;;6.47;;
21038;SDS011;10678;51.002;4.786;2024-01-27T01:07:25;21.57;;;7.00;;
21038;SDS011;10678;51.002;4.786;2024-01-27T01:09:51;20.70;;;7.57;;
21038;SDS011;10678;51.002;4.786;2024-01-27T01:12:16;19.23;;;7.43;;
21038;SDS011;10678;51.002;4.786;2024-01-27T01:14:43;23.17;;;7.13;;
21038;SDS011;10678;51.002;4.786;2024-01-27T01:17:08;22.77;;;6.80;;
21038;SDS011;10678;51.002;4.786;2024-01-27T01:19:35;19.83;;;6.93;;
21038;SDS011;10678;51.002;4.786;2024-01-27T01:22:02;20.93;;;8.33;;
21038;SDS011;10678;51.002;4.786;2024-01-27T01:24:29;19.80;;;7.83;;
21038;SDS011;10678;51.002;4.786;2024-01-27T01:26:54;16.43;;;6.63;;
21038;SDS011;10678;51.002;4.786;2024-01-27T01:29:20;17.77;;;6.47;;
21038;SDS011;10678;51.002;4.786;2024-01-27T01:31:47;22.40;;;7.40;;
21038;SDS011;10678;51.002;4.786;2024-01-27T01:34:12;20.03;;;7.37;;
21038;SDS011;10678;51.002;4.786;2024-01-27T01:36:38;18.27;;;6.90;;
21038;SDS011;10678;51.002;4.786;2024-01-27T01:39:04;18.40;;;6.50;;
21038;SDS011;10678;51.002;4.786;2024-01-27T01:41:29;16.93;;;7.13;;
21038;SDS011;10678;51.002;4.786;2024-01-27T01:43:55;16.27;;;5.93;;
21038;SDS011;10678;51.002;4.786;2024-01-27T01:46:21;23.70;;;7.53;;
21038;SDS011;10678;51.002;4.786;2024-01-27T01:48:49;18.30;;;6.63;;
21038;SDS011;10678;51.002;4.786;2024-01-27T01:51:15;16.47;;;6.93;;
21038;SDS011;10678;51.002;4.786;2024-01-27T01:53:42;16.93;;;6.57;;
21038;SDS011;10678;51.002;4.786;2024-01-27T01:56:08;21.87;;;6.87;;
21038;SDS011;10678;51.002;4.786;2024-01-27T01:58:34;17.43;;;5.87;;
21038;SDS011;10678;51.002;4.786;2024-01-27T02:01:00;12.40;;;4.93;;
21038;SDS011;10678;51.002;4.786;2024-01-27T02:03:26;15.47;;;4.47;;
21038;SDS011;10678;51.002;4.786;2024-01-27T02:05:52;14.33;;;5.23;;
21038;SDS011;10678;51.002;4.786;2024-01-27T02:08:19;15.47;;;4.87;;
21038;SDS011;10678;51.002;4.786;2024-01-27T02:10:45;11.33;;;4.77;;
21038;SDS011;10678;51.002;4.786;2024-01-27T02:13:17;12.47;;;4.97;;
21038;SDS011;10678;51.002;4.786;2024-01-27T02:15:47;18.07;;;5.37;;
21038;SDS011;10678;51.002;4.786;2024-01-27T02:18:13;16.70;;;4.57;;
21038;SDS011;10678;51.002;4.786;2024-01-27T02:20:40;16.37;;;4.80;;
21038;SDS011;10678;51.002;4.786;2024-01-27T02:23:05;13.93;;;4.97;;
21038;SDS011;10678;51.002;4.786;2024-01-27T02:25:32;17.80;;;5.30;;
21038;SDS011;10678;51.002;4.786;2024-01-27T02:27:58;17.90;;;5.80;;
21038;SDS011;10678;51.002;4.786;2024-01-27T02:30:23;14.47;;;5.33;;
21038;SDS011;10678;51.002;4.786;2024-01-27T02:32:49;16.87;;;6.10;;
21038;SDS011;10678;51.002;4.786;2024-01-27T02:35:15;15.83;;;5.93;;
21038;SDS011;10678;51.002;4.786;2024-01-27T02:37:41;14.97;;;5.17;;
21038;SDS011;10678;51.002;4.786;2024-01-27T02:40:07;14.00;;;5.13;;
21038;SDS011;10678;51.002;4.786;2024-01-27T02:42:34;14.57;;;5.03;;
21038;SDS011;10678;51.002;4.786;2024-01-27T02:45:00;15.17;;;5.27;;
21038;SDS011;10678;51.002;4.786;2024-01-27T02:47:27;17.27;;;5.20;;
21038;SDS011;10678;51.002;4.786;2024-01-27T02:49:53;14.87;;;4.33;;
21038;SDS011;10678;51.002;4.786;2024-01-27T02:52:18;14.07;;;4.90;;
21038;SDS011;10678;51.002;4.786;2024-01-27T02:54:44;12.00;;;4.97;;
21038;SDS011;10678;51.002;4.786;2024-01-27T02:57:10;11.67;;;4.70;;
21038;SDS011;10678;51.002;4.786;2024-01-27T02:59:36;16.43;;;5.07;;
21038;SDS011;10678;51.002;4.786;2024-01-27T03:02:03;18.03;;;4.57;;
21038;SDS011;10678;51.002;4.786;2024-01-27T03:04:32;11.20;;;3.97;;
21038;SDS011;10678;51.002;4.786;2024-01-27T03:06:58;16.57;;;4.43;;
21038;SDS011;10678;51.002;4.786;2024-01-27T03:09:23;21.90;;;4.73;;
21038;SDS011;10678;51.002;4.786;2024-01-27T03:11:49;18.90;;;5.33;;
21038;SDS011;10678;51.002;4.786;2024-01-27T03:14:15;13.03;;;5.77;;
21038;SDS011;10678;51.002;4.786;2024-01-27T03:16:41;13.13;;;4.30;;
21038;SDS011;10678;51.002;4.786;2024-01-27T03:19:08;14.23;;;4.63;;
21038;SDS011;10678;51.002;4.786;2024-01-27T03:21:33;18.53;;;5.50;;
21038;SDS011;10678;51.002;4.786;2024-01-27T03:23:59;12.57;;;4.83;;
21038;SDS011;10678;51.002;4.786;2024-01-27T03:26:24;8.50;;;4.53;;
21038;SDS011;10678;51.002;4.786;2024-01-27T03:28:50;17.47;;;4.50;;
21038;SDS011;10678;51.002;4.786;2024-01-27T03:31:16;13.90;;;4.63;;
21038;SDS011;10678;51.002;4.786;2024-01-27T03:33:41;13.80;;;4.10;;
21038;SDS011;10678;51.002;4.786;2024-01-27T03:36:10;13.40;;;4.33;;
21038;SDS011;10678;51.002;4.786;2024-01-27T03:38:37;20.90;;;5.03;;
21038;SDS011;10678;51.002;4.786;2024-01-27T03:41:05;12.93;;;4.17;;
21038;SDS011;10678;51.002;4.786;2024-01-27T03:43:30;13.77;;;4.87;;
21038;SDS011;10678;51.002;4.786;2024-01-27T03:45:56;12.83;;;4.53;;
21038;SDS011;10678;51.002;4.786;2024-01-27T03:48:22;11.60;;;4.07;;
21038;SDS011;10678;51.002;4.786;2024-01-27T03:50:48;14.00;;;4.67;;
21038;SDS011;10678;51.002;4.786;2024-01-27T03:53:13;13.63;;;4.47;;
21038;SDS011;10678;51.002;4.786;2024-01-27T03:55:39;13.23;;;4.30;;
21038;SDS011;10678;51.002;4.786;2024-01-27T03:58:05;14.67;;;4.47;;
21038;SDS011;10678;51.002;4.786;2024-01-27T04:00:31;10.93;;;4.00;;
21038;SDS011;10678;51.002;4.786;2024-01-27T04:03:01;10.53;;;4.00;;
21038;SDS011;10678;51.002;4.786;2024-01-27T04:05:28;9.53;;;4.27;;
21038;SDS011;10678;51.002;4.786;2024-01-27T04:07:54;10.43;;;3.77;;
21038;SDS011;10678;51.002;4.786;2024-01-27T04:10:20;10.27;;;4.23;;
21038;SDS011;10678;51.002;4.786;2024-01-27T04:12:46;11.63;;;4.67;;
21038;SDS011;10678;51.002;4.786;2024-01-27T04:15:12;14.17;;;4.73;;
21038;SDS011;10678;51.002;4.786;2024-01-27T04:17:38;21.93;;;4.57;;
21038;SDS011;10678;51.002;4.786;2024-01-27T04:20:05;12.27;;;4.00;;
21038;SDS011;10678;51.002;4.786;2024-01-27T04:22:32;15.80;;;4.37;;
21038;SDS011;10678;51.002;4.786;2024-01-27T04:24:58;8.60;;;4.30;;
21038;SDS011;10678;51.002;4.786;2024-01-27T04:27:24;12.77;;;4.97;;
21038;SDS011;10678;51.002;4.786;2024-01-27T04:29:51;10.97;;;3.90;;
21038;SDS011;10678;51.002;4.786;2024-01-27T04:32:17;20.53;;;4.93;;
21038;SDS011;10678;51.002;4.786;2024-01-27T04:34:42;11.70;;;4.60;;
21038;SDS011;10678;51.002;4.786;2024-01-27T04:37:08;19.13;;;4.80;;
21038;SDS011;10678;51.002;4.786;2024-01-27T04:39:34;11.50;;;4.13;;
21038;SDS011;10678;51.002;4.786;2024-01-27T04:41:59;21.07;;;4.67;;
21038;SDS011;10678;51.002;4.786;2024-01-27T04:44:25;16.40;;;4.77;;
21038;SDS011;10678;51.002;4.786;2024-01-27T04:46:51;16.87;;;4.53;;
21038;SDS011;10678;51.002;4.786;2024-01-27T04:49:16;14.70;;;4.70;;
21038;SDS011;10678;51.002;4.786;2024-01-27T04:51:42;15.23;;;5.83;;
21038;SDS011;10678;51.002;4.786;2024-01-27T04:54:08;20.27;;;5.37;;
21038;SDS011;10678;51.002;4.786;2024-01-27T04:56:34;11.63;;;4.17;;
21038;SDS011;10678;51.002;4.786;2024-01-27T04:59:00;13.23;;;4.93;;
21038;SDS011;10678;51.002;4.786;2024-01-27T05:01:26;19.30;;;5.40;;
21038;SDS011;10678;51.002;4.786;2024-01-27T05:03:52;16.47;;;4.80;;
21038;SDS011;10678;51.002;4.786;2024-01-27T05:06:18;15.50;;;5.97;;
21038;SDS011;10678;51.002;4.786;2024-01-27T05:08:44;22.03;;;5.83;;
21038;SDS011;10678;51.002;4.786;2024-01-27T05:11:10;17.40;;;6.23;;
21038;SDS011;10678;51.002;4.786;2024-01-27T05:13:36;12.10;;;4.83;;
21038;SDS011;10678;51.002;4.786;2024-01-27T05:16:03;13.37;;;5.03;;
21038;SDS011;10678;51.002;4.786;2024-01-27T05:18:29;15.23;;;5.03;;
21038;SDS011;10678;51.002;4.786;2024-01-27T05:20:54;16.43;;;5.80;;
21038;SDS011;10678;51.002;4.786;2024-01-27T05:23:20;11.90;;;5.57;;
21038;SDS011;10678;51.002;4.786;2024-01-27T05:25:46;16.37;;;5.60;;
21038;SDS011;10678;51.002;4.786;2024-01-27T05:28:11;19.47;;;7.00;;
21038;SDS011;10678;51.002;4.786;2024-01-27T05:30:37;13.33;;;5.10;;
21038;SDS011;10678;51.002;4.786;2024-01-27T05:33:02;16.13;;;6.00;;
21038;SDS011;10678;51.002;4.786;2024-01-27T05:35:28;16.47;;;5.70;;
21038;SDS011;10678;51.002;4.786;2024-01-27T05:37:54;16.23;;;6.33;;
21038;SDS011;10678;51.002;4.786;2024-01-27T05:40:20;15.77;;;5.77;;
21038;SDS011;10678;51.002;4.786;2024-01-27T05:42:46;19.63;;;6.73;;
21038;SDS011;10678;51.002;4.786;2024-01-27T05:45:11;14.23;;;5.70;;
21038;SDS011;10678;51.002;4.786;2024-01-27T05:47:37;14.57;;;5.67;;
21038;SDS011;10678;51.002;4.786;2024-01-27T05:50:03;23.63;;;5.77;;
21038;SDS011;10678;51.002;4.786;2024-01-27T05:52:29;12.67;;;5.20;;
21038;SDS011;10678;51.002;4.786;2024-01-27T05:54:55;13.57;;;5.37;;
21038;SDS011;10678;51.002;4.786;2024-01-27T05:57:20;13.53;;;5.80;;
21038;SDS011;10678;51.002;4.786;2024-01-27T05:59:46;18.50;;;5.67;;
21038;SDS011;10678;51.002;4.786;2024-01-27T06:02:12;12.17;;;5.20;;
21038;SDS011;10678;51.002;4.786;2024-01-27T06:04:37;20.10;;;5.87;;
21038;SDS011;10678;51.002;4.786;2024-01-27T06:07:03;22.67;;;6.43;;
21038;SDS011;10678;51.002;4.786;2024-01-27T06:09:29;20.43;;;6.73;;
21038;SDS011;10678;51.002;4.786;2024-01-27T06:11:54;16.97;;;6.50;;
21038;SDS011;10678;51.002;4.786;2024-01-27T06:14:24;17.60;;;5.83;;
21038;SDS011;10678;51.002;4.786;2024-01-27T06:16:50;15.97;;;7.10;;
21038;SDS011;10678;51.002;4.786;2024-01-27T06:19:16;23.03;;;6.37;;
21038;SDS011;10678;51.002;4.786;2024-01-27T06:21:41;26.63;;;6.50;;
21038;SDS011;10678;51.002;4.786;2024-01-27T06:24:07;14.10;;;6.63;;
21038;SDS011;10678;51.002;4.786;2024-01-27T06:26:33;28.83;;;7.07;;
21038;SDS011;10678;51.002;4.786;2024-01-27T06:28:58;14.17;;;6.37;;
21038;SDS011;10678;51.002;4.786;2024-01-27T06:31:25;22.53;;;8.70;;
21038;SDS011;10678;51.002;4.786;2024-01-27T06:33:51;16.97;;;7.03;;
21038;SDS011;10678;51.002;4.786;2024-01-27T06:36:17;19.93;;;6.90;;
21038;SDS011;10678;51.002;4.786;2024-01-27T06:38:42;21.03;;;6.73;;
21038;SDS011;10678;51.002;4.786;2024-01-27T06:41:08;22.90;;;7.73;;
21038;SDS011;10678;51.002;4.786;2024-01-27T06:43:35;21.73;;;6.60;;
21038;SDS011;10678;51.002;4.786;2024-01-27T06:46:00;18.70;;;6.73;;
21038;SDS011;10678;51.002;4.786;2024-01-27T06:48:26;20.97;;;6.23;;
21038;SDS011;10678;51.002;4.786;2024-01-27T06:50:52;22.13;;;6.67;;
21038;SDS011;10678;51.002;4.786;2024-01-27T06:53:18;30.70;;;7.93;;
21038;SDS011;10678;51.002;4.786;2024-01-27T06:55:44;11.53;;;5.93;;
21038;SDS011;10678;51.002;4.786;2024-01-27T06:58:10;19.77;;;6.70;;
21038;SDS011;10678;51.002;4.786;2024-01-27T07:00:36;18.40;;;7.03;;
21038;SDS011;10678;51.002;4.786;2024-01-27T07:03:01;17.53;;;7.30;;
21038;SDS011;10678;51.002;4.786;2024-01-27T07:05:27;20.00;;;7.27;;
21038;SDS011;10678;51.002;4.786;2024-01-27T07:07:53;15.10;;;6.97;;
21038;SDS011;10678;51.002;4.786;2024-01-27T07:10:19;22.70;;;7.87;;
21038;SDS011;10678;51.002;4.786;2024-01-27T07:12:45;16.17;;;7.17;;
21038;SDS011;10678;51.002;4.786;2024-01-27T07:15:10;18.17;;;7.30;;
21038;SDS011;10678;51.002;4.786;2024-01-27T07:17:36;20.10;;;6.97;;
21038;SDS011;10678;51.002;4.786;2024-01-27T07:20:02;24.97;;;8.67;;
21038;SDS011;10678;51.002;4.786;2024-01-27T07:22:28;26.17;;;8.60;;
21038;SDS011;10678;51.002;4.786;2024-01-27T07:24:53;18.93;;;7.30;;
21038;SDS011;10678;51.002;4.786;2024-01-27T07:27:20;19.37;;;7.83;;
21038;SDS011;10678;51.002;4.786;2024-01-27T07:29:47;15.23;;;7.27;;
21038;SDS011;10678;51.002;4.786;2024-01-27T07:32:13;25.33;;;7.80;;
21038;SDS011;10678;51.002;4.786;2024-01-27T07:34:44;12.17;;;6.37;;
21038;SDS011;10678;51.002;4.786;2024-01-27T07:37:10;10.80;;;5.73;;
21038;SDS011;10678;51.002;4.786;2024-01-27T07:39:36;15.67;;;5.43;;
21038;SDS011;10678;51.002;4.786;2024-01-27T07:42:02;17.57;;;5.83;;
21038;SDS011;10678;51.002;4.786;2024-01-27T07:44:27;16.33;;;5.93;;
21038;SDS011;10678;51.002;4.786;2024-01-27T07:46:53;17.57;;;6.50;;
21038;SDS011;10678;51.002;4.786;2024-01-27T07:49:19;18.00;;;5.80;;
21038;SDS011;10678;51.002;4.786;2024-01-27T07:51:44;18.10;;;6.63;;
21038;SDS011;10678;51.002;4.786;2024-01-27T07:54:10;18.23;;;5.83;;
21038;SDS011;10678;51.002;4.786;2024-01-27T07:56:37;10.27;;;5.37;;
21038;SDS011;10678;51.002;4.786;2024-01-27T07:59:03;15.67;;;6.23;;
21038;SDS011;10678;51.002;4.786;2024-01-27T08:01:28;14.97;;;6.40;;
21038;SDS011;10678;51.002;4.786;2024-01-27T08:03:54;14.37;;;6.77;;
21038;SDS011;10678;51.002;4.786;2024-01-27T08:06:27;17.00;;;5.67;;
21038;SDS011;10678;51.002;4.786;2024-01-27T08:08:54;16.10;;;5.77;;
21038;SDS011;10678;51.002;4.786;2024-01-27T08:11:20;21.33;;;6.30;;
21038;SDS011;10678;51.002;4.786;2024-01-27T08:13:46;12.63;;;6.00;;
21038;SDS011;10678;51.002;4.786;2024-01-27T08:16:12;17.47;;;5.90;;
21038;SDS011;10678;51.002;4.786;2024-01-27T08:18:39;24.57;;;6.50;;
21038;SDS011;10678;51.002;4.786;2024-01-27T08:21:07;14.97;;;5.87;;
21038;SDS011;10678;51.002;4.786;2024-01-27T08:23:33;22.40;;;6.77;;
21038;SDS011;10678;51.002;4.786;2024-01-27T08:25:59;17.63;;;6.23;;
21038;SDS011;10678;51.002;4.786;2024-01-27T08:28:24;20.53;;;7.37;;
21038;SDS011;10678;51.002;4.786;2024-01-27T08:30:50;27.97;;;9.83;;
21038;SDS011;10678;51.002;4.786;2024-01-27T08:33:16;34.93;;;14.90;;
21038;SDS011;10678;51.002;4.786;2024-01-27T08:35:41;34.17;;;11.20;;
21038;SDS011;10678;51.002;4.786;2024-01-27T08:38:07;19.03;;;8.30;;
21038;SDS011;10678;51.002;4.786;2024-01-27T08:40:34;19.20;;;7.17;;
21038;SDS011;10678;51.002;4.786;2024-01-27T08:43:00;16.10;;;6.90;;
21038;SDS011;10678;51.002;4.786;2024-01-27T08:45:26;20.33;;;8.27;;
21038;SDS011;10678;51.002;4.786;2024-01-27T08:47:52;17.27;;;5.87;;
21038;SDS011;10678;51.002;4.786;2024-01-27T08:50:18;12.70;;;5.53;;
21038;SDS011;10678;51.002;4.786;2024-01-27T08:52:44;19.83;;;5.63;;
21038;SDS011;10678;51.002;4.786;2024-01-27T08:55:11;14.60;;;5.10;;
21038;SDS011;10678;51.002;4.786;2024-01-27T08:57:36;14.33;;;5.53;;
21038;SDS011;10678;51.002;4.786;2024-01-27T09:00:02;13.07;;;4.07;;
21038;SDS011;10678;51.002;4.786;2024-01-27T09:02:28;18.33;;;5.90;;
21038;SDS011;10678;51.002;4.786;2024-01-27T09:04:54;28.70;;;6.43;;
21038;SDS011;10678;51.002;4.786;2024-01-27T09:07:20;16.80;;;5.80;;
21038;SDS011;10678;51.002;4.786;2024-01-27T09:09:46;12.10;;;4.80;;
21038;SDS011;10678;51.002;4.786;2024-01-27T09:12:11;14.57;;;5.70;;
21038;SDS011;10678;51.002;4.786;2024-01-27T09:14:37;17.70;;;5.80;;
21038;SDS011;10678;51.002;4.786;2024-01-27T09:17:02;12.40;;;4.37;;
21038;SDS011;10678;51.002;4.786;2024-01-27T09:19:28;15.87;;;4.50;;
21038;SDS011;10678;51.002;4.786;2024-01-27T09:21:54;15.77;;;4.13;;
21038;SDS011;10678;51.002;4.786;2024-01-27T09:24:19;19.67;;;4.30;;
21038;SDS011;10678;51.002;4.786;2024-01-27T09:26:45;17.63;;;4.87;;
21038;SDS011;10678;51.002;4.786;2024-01-27T09:29:11;13.17;;;4.50;;
21038;SDS011;10678;51.002;4.786;2024-01-27T09:31:37;17.43;;;4.10;;
21038;SDS011;10678;51.002;4.786;2024-01-27T09:34:03;12.47;;;3.40;;
21038;SDS011;10678;51.002;4.786;2024-01-27T09:36:28;18.63;;;3.77;;
21038;SDS011;10678;51.002;4.786;2024-01-27T09:38:54;12.73;;;4.23;;
21038;SDS011;10678;51.002;4.786;2024-01-27T09:41:20;13.23;;;4.23;;
21038;SDS011;10678;51.002;4.786;2024-01-27T09:43:46;12.60;;;3.70;;
21038;SDS011;10678;51.002;4.786;2024-01-27T09:46:15;14.87;;;4.57;;
21038;SDS011;10678;51.002;4.786;2024-01-27T09:48:42;12.73;;;4.30;;
21038;SDS011;10678;51.002;4.786;2024-01-27T09:51:09;10.47;;;4.37;;
21038;SDS011;10678;51.002;4.786;2024-01-27T09:53:36;12.60;;;4.10;;
21038;SDS011;10678;51.002;4.786;2024-01-27T09:56:01;17.90;;;4.40;;
21038;SDS011;10678;51.002;4.786;2024-01-27T09:58:28;15.75;;;4.22;;
21038;SDS011;10678;51.002;4.786;2024-01-27T10:00:59;14.80;;;3.78;;
21038;SDS011;10678;51.002;4.786;2024-01-27T10:03:26;14.75;;;4.25;;
21038;SDS011;10678;51.002;4.786;2024-01-27T10:05:53;15.13;;;4.85;;
21038;SDS011;10678;51.002;4.786;2024-01-27T10:08:20;15.10;;;3.63;;
21038;SDS011;10678;51.002;4.786;2024-01-27T10:10:47;19.70;;;4.38;;
21038;SDS011;10678;51.002;4.786;2024-01-27T10:13:13;14.85;;;4.28;;
21038;SDS011;10678;51.002;4.786;2024-01-27T10:15:42;11.13;;;4.00;;
21038;SDS011;10678;51.002;4.786;2024-01-27T10:18:08;13.55;;;3.72;;
21038;SDS011;10678;51.002;4.786;2024-01-27T10:20:38;11.85;;;3.97;;
21038;SDS011;10678;51.002;4.786;2024-01-27T10:23:11;12.70;;;3.88;;
21038;SDS011;10678;51.002;4.786;2024-01-27T10:25:38;14.27;;;3.78;;
21038;SDS011;10678;51.002;4.786;2024-01-27T10:28:06;15.35;;;3.95;;
21038;SDS011;10678;51.002;4.786;2024-01-27T10:30:33;11.32;;;3.22;;
21038;SDS011;10678;51.002;4.786;2024-01-27T10:32:59;16.52;;;3.50;;
21038;SDS011;10678;51.002;4.786;2024-01-27T10:35:25;13.07;;;3.00;;
21038;SDS011;10678;51.002;4.786;2024-01-27T10:37:52;12.68;;;3.25;;
21038;SDS011;10678;51.002;4.786;2024-01-27T10:40:18;20.83;;;3.90;;
21038;SDS011;10678;51.002;4.786;2024-01-27T10:42:44;17.00;;;4.85;;
21038;SDS011;10678;51.002;4.786;2024-01-27T10:45:11;15.02;;;4.50;;
21038;SDS011;10678;51.002;4.786;2024-01-27T10:47:38;11.73;;;4.25;;
21038;SDS011;10678;51.002;4.786;2024-01-27T10:50:07;12.02;;;3.08;;
21038;SDS011;10678;51.002;4.786;2024-01-27T10:52:37;14.60;;;3.22;;
21038;SDS011;10678;51.002;4.786;2024-01-27T10:55:04;13.27;;;4.20;;
21038;SDS011;10678;51.002;4.786;2024-01-27T10:57:35;13.80;;;3.70;;
21038;SDS011;10678;51.002;4.786;2024-01-27T11:00:03;7.90;;;2.85;;
21038;SDS011;10678;51.002;4.786;2024-01-27T11:02:34;13.80;;;3.60;;
21038;SDS011;10678;51.002;4.786;2024-01-27T11:05:02;12.20;;;2.88;;
21038;SDS011;10678;51.002;4.786;2024-01-27T11:07:32;12.75;;;2.60;;
21038;SDS011;10678;51.002;4.786;2024-01-27T11:09:59;11.88;;;2.75;;
21038;SDS011;10678;51.002;4.786;2024-01-27T11:12:25;12.70;;;2.55;;
21038;SDS011;10678;51.002;4.786;2024-01-27T11:14:51;9.77;;;3.10;;
21038;SDS011;10678;51.002;4.786;2024-01-27T11:17:17;11.02;;;2.70;;
21038;SDS011;10678;51.002;4.786;2024-01-27T11:19:44;8.70;;;2.22;;
21038;SDS011;10678;51.002;4.786;2024-01-27T11:22:26;10.52;;;2.95;;
21038;SDS011;10678;51.002;4.786;2024-01-27T11:24:53;10.10;;;2.67;;
21038;SDS011;10678;51.002;4.786;2024-01-27T11:27:35;16.92;;;2.83;;
21038;SDS011;10678;51.002;4.786;2024-01-27T11:30:01;17.42;;;2.90;;
21038;SDS011;10678;51.002;4.786;2024-01-27T11:32:27;7.10;;;2.25;;
21038;SDS011;10678;51.002;4.786;2024-01-27T11:34:53;7.22;;;2.45;;
21038;SDS011;10678;51.002;4.786;2024-01-27T11:37:18;7.93;;;2.25;;
21038;SDS011;10678;51.002;4.786;2024-01-27T11:39:50;11.60;;;3.05;;
21038;SDS011;10678;51.002;4.786;2024-01-27T11:42:17;14.35;;;2.78;;
21038;SDS011;10678;51.002;4.786;2024-01-27T11:44:43;16.65;;;2.80;;
21038;SDS011;10678;51.002;4.786;2024-01-27T11:47:17;11.30;;;2.90;;
21038;SDS011;10678;51.002;4.786;2024-01-27T11:49:48;7.22;;;2.25;;
21038;SDS011;10678;51.002;4.786;2024-01-27T11:52:19;13.57;;;3.17;;
21038;SDS011;10678;51.002;4.786;2024-01-27T11:54:45;13.05;;;2.60;;
21038;SDS011;10678;51.002;4.786;2024-01-27T11:57:11;11.02;;;2.03;;
21038;SDS011;10678;51.002;4.786;2024-01-27T11:59:37;13.93;;;3.08;;
21038;SDS011;10678;51.002;4.786;2024-01-27T12:02:02;8.60;;;1.98;;
21038;SDS011;10678;51.002;4.786;2024-01-27T12:04:28;11.15;;;2.70;;
21038;SDS011;10678;51.002;4.786;2024-01-27T12:06:54;14.90;;;2.90;;
21038;SDS011;10678;51.002;4.786;2024-01-27T12:09:20;9.40;;;2.03;;
21038;SDS011;10678;51.002;4.786;2024-01-27T12:11:45;6.45;;;2.10;;
21038;SDS011;10678;51.002;4.786;2024-01-27T12:14:11;9.30;;;2.10;;
21038;SDS011;10678;51.002;4.786;2024-01-27T12:16:37;9.45;;;1.98;;
21038;SDS011;10678;51.002;4.786;2024-01-27T12:19:03;8.35;;;1.98;;
21038;SDS011;10678;51.002;4.786;2024-01-27T12:21:29;8.48;;;2.20;;
21038;SDS011;10678;51.002;4.786;2024-01-27T12:23:55;8.15;;;2.47;;
21038;SDS011;10678;51.002;4.786;2024-01-27T12:26:22;8.98;;;2.30;;
21038;SDS011;10678;51.002;4.786;2024-01-27T12:28:53;11.25;;;2.60;;
21038;SDS011;10678;51.002;4.786;2024-01-27T12:31:20;8.80;;;2.28;;
21038;SDS011;10678;51.002;4.786;2024-01-27T12:33:49;9.48;;;2.50;;
21038;SDS011;10678;51.002;4.786;2024-01-27T12:36:16;7.75;;;2.17;;
21038;SDS011;10678;51.002;4.786;2024-01-27T12:38:47;11.75;;;2.95;;
21038;SDS011;10678;51.002;4.786;2024-01-27T12:41:28;9.75;;;2.10;;
21038;SDS011;10678;51.002;4.786;2024-01-27T12:43:58;9.85;;;2.70;;
21038;SDS011;10678;51.002;4.786;2024-01-27T12:46:24;11.18;;;2.50;;
21038;SDS011;10678;51.002;4.786;2024-01-27T12:48:50;9.75;;;2.38;;
21038;SDS011;10678;51.002;4.786;2024-01-27T12:51:16;10.88;;;2.80;;
21038;SDS011;10678;51.002;4.786;2024-01-27T12:53:42;10.35;;;2.50;;
21038;SDS011;10678;51.002;4.786;2024-01-27T12:56:09;11.05;;;2.80;;
21038;SDS011;10678;51.002;4.786;2024-01-27T12:58:36;8.85;;;2.60;;
21038;SDS011;10678;51.002;4.786;2024-01-27T13:01:02;10.00;;;2.28;;
21038;SDS011;10678;51.002;4.786;2024-01-27T13:03:28;9.75;;;2.58;;
21038;SDS011;10678;51.002;4.786;2024-01-27T13:05:54;6.63;;;2.05;;
21038;SDS011;10678;51.002;4.786;2024-01-27T13:08:21;5.07;;;1.40;;
21038;SDS011;10678;51.002;4.786;2024-01-27T13:10:47;6.97;;;2.22;;
21038;SDS011;10678;51.002;4.786;2024-01-27T13:13:12;9.65;;;2.35;;
21038;SDS011;10678;51.002;4.786;2024-01-27T13:15:38;12.80;;;2.30;;
21038;SDS011;10678;51.002;4.786;2024-01-27T13:18:04;11.05;;;2.63;;
21038;SDS011;10678;51.002;4.786;2024-01-27T13:20:30;11.32;;;2.30;;
21038;SDS011;10678;51.002;4.786;2024-01-27T13:22:55;8.63;;;1.98;;
21038;SDS011;10678;51.002;4.786;2024-01-27T13:25:21;14.75;;;3.30;;
21038;SDS011;10678;51.002;4.786;2024-01-27T13:27:47;14.55;;;5.95;;
21038;SDS011;10678;51.002;4.786;2024-01-27T13:30:13;15.60;;;5.82;;
21038;SDS011;10678;51.002;4.786;2024-01-27T13:32:39;10.73;;;4.10;;
21038;SDS011;10678;51.002;4.786;2024-01-27T13:35:05;10.75;;;2.95;;
21038;SDS011;10678;51.002;4.786;2024-01-27T13:37:32;10.90;;;2.13;;
21038;SDS011;10678;51.002;4.786;2024-01-27T13:40:02;7.70;;;1.98;;
21038;SDS011;10678;51.002;4.786;2024-01-27T13:42:28;12.07;;;2.47;;
21038;SDS011;10678;51.002;4.786;2024-01-27T13:44:54;9.02;;;2.42;;
21038;SDS011;10678;51.002;4.786;2024-01-27T13:47:20;10.20;;;2.08;;
21038;SDS011;10678;51.002;4.786;2024-01-27T13:49:46;7.28;;;1.65;;
21038;SDS011;10678;51.002;4.786;2024-01-27T13:52:12;11.95;;;2.05;;
21038;SDS011;10678;51.002;4.786;2024-01-27T13:54:38;8.70;;;2.33;;
21038;SDS011;10678;51.002;4.786;2024-01-27T13:57:04;13.90;;;2.30;;
21038;SDS011;10678;51.002;4.786;2024-01-27T13:59:31;10.52;;;2.53;;
21038;SDS011;10678;51.002;4.786;2024-01-27T14:01:57;7.15;;;2.10;;
21038;SDS011;10678;51.002;4.786;2024-01-27T14:04:23;8.63;;;2.03;;
21038;SDS011;10678;51.002;4.786;2024-01-27T14:06:50;11.07;;;2.80;;
21038;SDS011;10678;51.002;4.786;2024-01-27T14:09:16;10.00;;;2.38;;
21038;SDS011;10678;51.002;4.786;2024-01-27T14:11:44;8.88;;;2.45;;
21038;SDS011;10678;51.002;4.786;2024-01-27T14:14:09;8.77;;;2.33;;
21038;SDS011;10678;51.002;4.786;2024-01-27T14:16:35;8.75;;;1.85;;
21038;SDS011;10678;51.002;4.786;2024-01-27T14:19:01;12.27;;;2.35;;
21038;SDS011;10678;51.002;4.786;2024-01-27T14:21:26;10.05;;;2.05;;
21038;SDS011;10678;51.002;4.786;2024-01-27T14:23:53;9.38;;;1.80;;
21038;SDS011;10678;51.002;4.786;2024-01-27T14:26:26;8.93;;;2.03;;
21038;SDS011;10678;51.002;4.786;2024-01-27T14:28:53;8.60;;;1.92;;
21038;SDS011;10678;51.002;4.786;2024-01-27T14:31:19;8.75;;;1.80;;